Radley, Kansas
Current Conditions -  °F | °C
As of 12:15 PM on Saturday 25 Oct 2014 (Local Time) from KPTS Reporting Station
Clear Clear  
Wind Chill: 76°   Ceiling: Unl
Heat Index: 78°   Visibility: 10mi
Dew Point: 66°   Wind: 5mph
Humidity: 71%   Direction: 210°SSW
Pressure: 30.07"   Gusts: NA
Location:  37.4268°N, 94.7004°W
Report Text: KPTS 251715Z AUTO 21004KT 10SM CLR 25/19 A3007 RMK AO2 T02450189
Loading
Personal Weather Stations






























Interactive Weather Map
Tropical Storm Tracking
New forecast layout! Learn more

10-Day Weather Forecast

Advertisements
Track Severe Weather on mobile